Kezdőlap
METAR-TAF:

METAR-TAF

Repülőterek :

N’Djamena, Csád

földrajzi szélesség: 12-08N, földrajzi hosszúság: 015-02E, magasság: 295 m

Jelenlegi meteorológiai megfigyelések

A jelentés 1 órával és 22 perccel ezelõtt készült, 13:00 UTC
Déli szél 4 kt, déli és nyugati között változik
Hőmérséklet 35°C
Páratartalom 47%
Légköri nyomás 1009 hPa
Látótávolság 10 km, vagy több
Kevés felhő 4000 lábon

METAR: FTTJ 191300Z 18004KT 180V280 9999 FEW040 35/22 Q1009 NOSIG

Idő: 15:22 (14:22 UTC)

Előrejelzés

A jelentés 3 órával és 22 perccel ezelõtt készült, 11:00 UTC
Az előrejelzés 19-én 12 óra UTC és 20-én 18 óra UTC között érvényes
Déli szél 6 kt
Látótávolság 10 km, vagy több
Kevés felhő 4000 lábon
19-én 14 óra UTC és 19-én 21 óra UTC között ideiglenes
Különbözõ irányokból fújó szél 15 kt széllökések: 25 kt
Látótávolság: 4000 m
zivatar, esõ

TAF: FTTJ 191100Z 1912/2018 18006KT 9999 FEW040 TEMPO 1914/1921 VRB15G25KT 4000 TSRA

Meteorológiai megfigyelések és előrejelzések több, mint 4000 repülőtéren (METAR és TAF jelentéseket).

A térképen piros és sárga pontok jelzik az elérhető meteorológiai állomásokat.

Mozgassa az egeret a pont fölött, hogy megjelenjen az állomás neve.

Azután kattintson az időjárási megfigyelések és előrejelzések megtekintéséhez.

A térkép megváltoztatása: kattintson a fekete keresztel jelölt zöld gombra ráközelítéshez, a vonallal jelölt zöld gombra távolításhoz, vagy a zöld nyilakra a szomszédos térképek eléréséhez.


METAR-TAF: